Terminal Aerodrome Forecast
Issued by NWS

Current Version | Previous Version | Text Only | Print | Product List | Glossary Off
Versions: 1 2 3 4 5 6 7 8 9 10 11 12 13 14 15 16 17 18

811
FTUS41 KILN 190912 AAA
TAFLCK
TAF AMD
KLCK 190912Z 1909/2006 22007KT P6SM OVC007
      TEMPO 1910/1914 OVC012
     FM191400 14004KT P6SM OVC250
     FM191800 13006KT P6SM OVC150
     FM200500 09006KT 4SM -RA BR OVC050=

USA.gov is the U.S. government's official web portal to all federal, state and local government web resources and services.